Time;durP1;ratioP1;P1;durP2;ratioP2;P2;SDS_P1;SDS_P2;PMS_P1;PMS_P2;Temp;Humidity;BMP_temperature;BMP_pressure;BME280_temperature;BME280_humidity;BME280_pressure;Samples;Min_cycle;Max_cycle;Signal;HPM_P1;HPM_P2
2021/03/20 00:01:52;;;;;;;13.90;7.93;;;-2.40;99.90;;;;;;5110333;28;20394;-66
2021/03/20 00:04:19;;;;;;;15.90;7.90;;;-2.40;99.90;;;;;;5086432;28;20027;-64
2021/03/20 00:06:50;;;;;;;14.35;7.85;;;-2.30;99.90;;;;;;5115402;28;20023;-62
2021/03/20 00:09:19;;;;;;;15.80;7.82;;;-2.40;99.90;;;;;;5114590;28;20096;-64
2021/03/20 00:11:47;;;;;;;15.63;8.75;;;-2.30;99.90;;;;;;5114181;28;20055;-61
2021/03/20 00:14:16;;;;;;;15.23;8.32;;;-2.40;99.90;;;;;;5100804;28;20059;-65
2021/03/20 00:16:42;;;;;;;14.02;8.52;;;-2.40;99.90;;;;;;5111718;28;20426;-66
2021/03/20 00:19:07;;;;;;;12.70;8.10;;;-2.50;99.90;;;;;;5094027;28;20024;-62
2021/03/20 00:21:33;;;;;;;13.95;8.25;;;-2.50;99.90;;;;;;5095000;28;20060;-65
2021/03/20 00:23:59;;;;;;;16.58;8.27;;;-2.50;99.90;;;;;;5096499;28;20028;-62
2021/03/20 00:26:25;;;;;;;16.77;7.90;;;-2.50;99.90;;;;;;5105289;28;20160;-63
2021/03/20 00:28:52;;;;;;;15.45;9.00;;;-2.50;99.90;;;;;;5102532;28;20485;-63
2021/03/20 00:31:18;;;;;;;18.48;8.13;;;-2.50;99.90;;;;;;5103475;28;20479;-65
2021/03/20 00:33:44;;;;;;;16.38;8.77;;;-2.50;99.90;;;;;;5077056;28;20128;-63
2021/03/20 00:36:11;;;;;;;14.25;8.02;;;-2.60;99.90;;;;;;5093920;28;20024;-64
2021/03/20 00:38:39;;;;;;;14.65;7.80;;;-2.50;99.90;;;;;;5089025;28;20036;-65
2021/03/20 00:41:08;;;;;;;14.85;8.25;;;-2.60;99.90;;;;;;5104866;28;20501;-63
2021/03/20 00:43:34;;;;;;;16.83;8.77;;;-2.60;99.90;;;;;;5113917;28;20031;-63
2021/03/20 00:46:00;;;;;;;17.48;8.23;;;-2.60;99.90;;;;;;5101164;28;20023;-66
2021/03/20 00:48:29;;;;;;;14.02;8.60;;;-2.70;99.90;;;;;;5076424;28;20039;-66
2021/03/20 00:50:55;;;;;;;13.95;7.88;;;-2.60;99.90;;;;;;5095390;28;20077;-68
2021/03/20 00:53:22;;;;;;;15.85;8.18;;;-2.70;99.90;;;;;;5080896;28;20365;-60
2021/03/20 00:55:48;;;;;;;16.17;8.40;;;-2.60;99.90;;;;;;5104532;28;20016;-64
2021/03/20 00:58:20;;;;;;;13.45;8.23;;;-2.50;99.90;;;;;;5092725;28;20814;-65
2021/03/20 01:00:47;;;;;;;14.75;7.68;;;-2.40;99.90;;;;;;5102502;28;20032;-63
2021/03/20 01:03:14;;;;;;;15.60;8.00;;;-2.30;99.90;;;;;;5076230;28;20036;-63
2021/03/20 01:05:40;;;;;;;15.13;7.60;;;-2.20;99.90;;;;;;5099661;28;20035;-64
2021/03/20 01:08:05;;;;;;;13.75;8.02;;;-2.10;99.90;;;;;;5104954;28;20042;-61
2021/03/20 01:10:32;;;;;;;14.38;8.60;;;-2.00;99.90;;;;;;5113526;28;20701;-62
2021/03/20 01:12:58;;;;;;;15.05;7.60;;;-2.00;99.90;;;;;;5112948;28;20028;-67
2021/03/20 01:15:23;;;;;;;13.15;7.32;;;-1.90;99.90;;;;;;5086808;28;20480;-65
2021/03/20 01:17:49;;;;;;;15.57;8.32;;;-1.90;99.90;;;;;;5093528;28;20047;-63
2021/03/20 01:20:15;;;;;;;13.00;7.88;;;-1.80;99.90;;;;;;5093056;28;20293;-64
2021/03/20 01:22:41;;;;;;;12.68;6.97;;;-1.80;99.90;;;;;;5102007;28;20110;-66
2021/03/20 01:25:08;;;;;;;13.05;7.40;;;-1.80;99.90;;;;;;5101899;28;20108;-64
2021/03/20 01:27:34;;;;;;;18.75;8.10;;;-1.80;99.90;;;;;;5094107;28;20035;-63
2021/03/20 01:30:00;;;;;;;15.75;8.52;;;-1.80;99.90;;;;;;5094256;28;20035;-65
2021/03/20 01:32:26;;;;;;;15.27;8.00;;;-1.80;99.90;;;;;;5093388;28;20073;-62
2021/03/20 01:34:51;;;;;;;14.07;7.20;;;-1.80;99.90;;;;;;5108404;28;20376;-64
2021/03/20 01:37:17;;;;;;;14.15;7.65;;;-1.80;99.90;;;;;;5112525;28;20028;-64
2021/03/20 01:39:42;;;;;;;15.65;7.60;;;-1.70;99.90;;;;;;5103128;28;20036;-64
2021/03/20 01:42:09;;;;;;;15.48;7.03;;;-1.60;99.90;;;;;;5111340;28;20039;-61
2021/03/20 01:44:35;;;;;;;10.55;7.20;;;-1.50;99.90;;;;;;5113201;28;20063;-64
2021/03/20 01:47:03;;;;;;;11.95;6.63;;;-1.50;99.90;;;;;;5095154;28;20035;-65
2021/03/20 01:49:40;;;;;;;11.98;7.55;;;-1.40;99.90;;;;;;5101300;28;20066;-64
2021/03/20 01:52:12;;;;;;;15.18;7.05;;;-1.40;99.90;;;;;;5106828;28;20035;-64
2021/03/20 01:54:54;;;;;;;14.40;7.30;;;-1.20;99.90;;;;;;5110302;28;20032;-63
2021/03/20 01:57:28;;;;;;;10.98;6.90;;;-1.10;99.90;;;;;;5092415;28;20089;-64
2021/03/20 01:59:56;;;;;;;13.27;6.78;;;-1.00;99.90;;;;;;5097155;28;20036;-64
2021/03/20 02:02:21;;;;;;;12.60;7.32;;;-1.00;99.90;;;;;;5103753;28;20028;-64
2021/03/20 02:04:47;;;;;;;10.48;6.97;;;-0.90;99.90;;;;;;5112792;28;20089;-63
2021/03/20 02:07:13;;;;;;;13.73;6.20;;;-0.90;99.90;;;;;;5111971;28;20053;-63
2021/03/20 02:09:39;;;;;;;10.93;6.32;;;-0.90;99.90;;;;;;5103798;28;20031;-64
2021/03/20 02:12:14;;;;;;;12.15;7.05;;;-0.90;99.90;;;;;;5093354;28;20020;-60
2021/03/20 02:15:03;;;;;;;12.65;6.90;;;-0.80;99.90;;;;;;5093096;28;20036;-63
2021/03/20 02:17:44;;;;;;;14.40;7.50;;;-0.80;99.90;;;;;;5105787;28;20027;-63
2021/03/20 02:20:34;;;;;;;16.88;6.78;;;-0.80;99.90;;;;;;5102306;28;20115;-64
2021/03/20 02:23:33;;;;;;;12.98;7.32;;;-0.70;99.90;;;;;;5105481;28;20041;-67
2021/03/20 02:26:22;;;;;;;10.73;6.22;;;-0.70;99.90;;;;;;5101193;28;20088;-67
2021/03/20 02:29:35;;;;;;;10.00;6.80;;;-0.70;99.90;;;;;;5094097;28;20140;-64
2021/03/20 02:32:37;;;;;;;11.32;6.90;;;-0.60;99.90;;;;;;5021054;28;20566;-67
2021/03/20 02:35:15;;;;;;;13.40;7.43;;;-0.60;99.90;;;;;;5103575;28;20032;-65
2021/03/20 02:37:57;;;;;;;11.88;7.00;;;-0.50;99.90;;;;;;5104313;28;20060;-64
2021/03/20 02:40:34;;;;;;;13.20;6.97;;;-0.60;99.90;;;;;;5085568;28;20024;-63
2021/03/20 02:43:17;;;;;;;11.93;7.05;;;-0.50;99.90;;;;;;5100102;28;20027;-66
2021/03/20 02:45:50;;;;;;;14.40;7.90;;;-0.60;99.90;;;;;;5092586;28;20472;-63
2021/03/20 02:48:31;;;;;;;13.48;6.78;;;-0.50;99.90;;;;;;5110095;28;20650;-66
2021/03/20 02:51:30;;;;;;;12.20;7.22;;;-0.50;99.90;;;;;;5095836;28;20024;-62
2021/03/20 02:54:11;;;;;;;12.38;7.28;;;-0.50;99.90;;;;;;5082069;28;20482;-64
2021/03/20 02:56:54;;;;;;;12.98;7.50;;;-0.60;99.90;;;;;;5092352;28;20024;-64
2021/03/20 02:59:24;;;;;;;12.90;7.50;;;-0.50;99.90;;;;;;5073589;28;20111;-64
2021/03/20 03:01:50;;;;;;;;;;;-0.60;99.90;;;;;;5107573;28;20042;-63
2021/03/20 03:04:21;;;;;;;12.32;7.30;;;-0.50;99.90;;;;;;5073177;28;19961;-62
2021/03/20 03:07:02;;;;;;;11.15;6.72;;;-0.60;99.90;;;;;;5106440;28;20097;-64
2021/03/20 03:09:35;;;;;;;13.20;7.60;;;-0.60;99.90;;;;;;5092011;28;20454;-66
2021/03/20 03:12:10;;;;;;;14.93;7.47;;;-0.60;99.90;;;;;;5091354;28;20058;-67
2021/03/20 03:14:56;;;;;;;15.20;8.38;;;-0.60;99.90;;;;;;5099691;28;20541;-61
2021/03/20 03:17:25;;;;;;;14.15;8.07;;;-0.50;99.90;;;;;;5091033;28;20282;-64
2021/03/20 03:19:59;;;;;;;12.57;7.60;;;-0.40;99.90;;;;;;5111496;28;20063;-63
2021/03/20 03:22:35;;;;;;;11.57;7.55;;;-0.20;99.90;;;;;;5098001;28;20024;-63
2021/03/20 03:25:06;;;;;;;12.20;7.07;;;-0.20;99.90;;;;;;5108457;28;20072;-66
2021/03/20 03:27:36;;;;;;;11.90;7.97;;;-0.20;99.90;;;;;;5111343;28;20027;-64
2021/03/20 03:30:09;;;;;;;12.82;7.78;;;-0.40;99.90;;;;;;5094880;28;20051;-67
2021/03/20 03:32:46;;;;;;;12.38;7.65;;;-0.40;99.90;;;;;;5095243;28;20027;-60
2021/03/20 03:35:23;;;;;;;10.65;7.18;;;-0.50;99.90;;;;;;5111207;28;20016;-63
2021/03/20 03:38:10;;;;;;;13.40;7.78;;;-0.60;99.90;;;;;;5083945;28;20039;-61
2021/03/20 03:41:06;;;;;;;15.98;8.88;;;-0.50;99.90;;;;;;5081458;28;20027;-61
2021/03/20 03:43:32;;;;;;;10.85;7.45;;;-0.50;99.90;;;;;;5088533;28;20047;-65
2021/03/20 03:45:58;;;;;;;14.88;8.32;;;-0.50;99.90;;;;;;5093554;28;20107;-64
2021/03/20 03:48:25;;;;;;;13.32;7.80;;;-0.60;99.90;;;;;;5090479;28;20109;-62
2021/03/20 03:50:53;;;;;;;12.80;7.35;;;-0.50;99.90;;;;;;5093583;28;20487;-66
2021/03/20 03:53:28;;;;;;;12.80;7.65;;;-0.60;99.90;;;;;;5089607;28;20035;-63
2021/03/20 03:56:01;;;;;;;12.55;7.88;;;-0.60;99.90;;;;;;5080943;28;20024;-65
2021/03/20 03:58:49;;;;;;;12.80;7.30;;;-0.60;99.90;;;;;;5088257;28;20059;-63
2021/03/20 04:01:38;;;;;;;13.85;7.75;;;-0.70;99.90;;;;;;5091285;28;20061;-64
2021/03/20 04:04:40;;;;;;;11.55;7.68;;;-0.70;99.90;;;;;;5077957;28;20024;-67
2021/03/20 04:07:08;;;;;;;12.77;7.72;;;-0.70;99.90;;;;;;5089312;28;20080;-64
2021/03/20 04:09:49;;;;;;;11.70;7.93;;;-0.80;99.90;;;;;;5091708;28;20027;-61
2021/03/20 04:12:19;;;;;;;14.93;8.45;;;-0.70;99.90;;;;;;5089532;28;20636;-62
2021/03/20 04:15:04;;;;;;;13.65;7.60;;;-0.80;99.90;;;;;;5088043;28;20028;-65
2021/03/20 04:17:35;;;;;;;12.85;7.97;;;-0.70;99.90;;;;;;5093065;28;20098;-65
2021/03/20 04:20:08;;;;;;;11.55;7.72;;;-0.70;99.90;;;;;;5093190;28;20040;-68
2021/03/20 04:22:56;;;;;;;12.93;8.02;;;-0.60;99.90;;;;;;5080363;28;20032;-65
2021/03/20 04:25:39;;;;;;;11.35;7.22;;;-0.70;99.90;;;;;;5090447;28;20027;-65
2021/03/20 04:28:09;;;;;;;11.30;7.25;;;-0.70;99.90;;;;;;5094806;28;20081;-65
2021/03/20 04:30:39;;;;;;;13.57;8.18;;;-0.60;99.90;;;;;;5095404;28;20039;-65
2021/03/20 04:33:17;;;;;;;14.48;7.70;;;-0.60;99.90;;;;;;5093292;28;20032;-64
2021/03/20 04:35:54;;;;;;;11.98;7.70;;;-0.60;99.90;;;;;;5091056;28;20055;-65
2021/03/20 04:38:21;;;;;;;10.43;7.15;;;-0.60;99.90;;;;;;5094108;28;20885;-65
2021/03/20 04:40:55;;;;;;;10.70;7.57;;;-0.50;99.90;;;;;;5094473;28;20055;-65
2021/03/20 04:43:27;;;;;;;12.63;7.82;;;-0.50;99.90;;;;;;5091918;28;20046;-65
2021/03/20 04:46:06;;;;;;;11.82;7.28;;;-0.50;99.90;;;;;;5093053;28;20032;-65
2021/03/20 04:48:37;;;;;;;12.68;7.20;;;-0.40;99.90;;;;;;5094739;28;20117;-65
2021/03/20 04:51:25;;;;;;;10.38;7.55;;;-0.30;99.90;;;;;;5092939;28;20042;-67
2021/03/20 04:54:04;;;;;;;10.98;6.82;;;-0.40;99.90;;;;;;5092573;28;20024;-65
2021/03/20 04:56:34;;;;;;;10.00;6.80;;;-0.50;99.90;;;;;;5094180;28;20469;-64
2021/03/20 04:59:05;;;;;;;;;;;-0.50;99.90;;;;;;5095715;28;20377;-64
2021/03/20 05:01:45;;;;;;;13.32;8.02;;;-0.50;99.90;;;;;;5095186;28;19915;-63
2021/03/20 05:04:23;;;;;;;11.88;8.07;;;-0.60;99.90;;;;;;5093816;28;20156;-64
2021/03/20 05:06:50;;;;;;;11.85;6.90;;;-0.60;99.90;;;;;;5094175;28;20039;-64
2021/03/20 05:09:24;;;;;;;12.70;7.35;;;-0.70;99.90;;;;;;5093555;28;20031;-65
2021/03/20 05:11:55;;;;;;;16.00;7.22;;;-0.70;99.90;;;;;;5093653;28;20028;-64
2021/03/20 05:14:40;;;;;;;11.63;7.75;;;-0.80;99.90;;;;;;5091169;28;20103;-64
2021/03/20 05:17:12;;;;;;;14.07;8.00;;;-0.90;99.90;;;;;;5092603;28;20019;-69
2021/03/20 05:19:38;;;;;;;11.73;7.93;;;-1.00;99.90;;;;;;5094965;28;20031;-66
2021/03/20 05:22:05;;;;;;;15.02;7.38;;;-1.20;99.90;;;;;;5091856;28;20034;-67
2021/03/20 05:24:36;;;;;;;12.85;8.05;;;-1.20;99.90;;;;;;5095037;28;20059;-63
2021/03/20 05:27:06;;;;;;;13.65;7.90;;;-1.20;99.90;;;;;;5082354;28;20040;-68
2021/03/20 05:29:32;;;;;;;13.35;7.60;;;-1.20;99.90;;;;;;5092904;28;20054;-63
2021/03/20 05:31:59;;;;;;;13.32;7.95;;;-1.30;99.90;;;;;;5096012;28;20385;-60
2021/03/20 05:34:31;;;;;;;13.18;8.18;;;-1.30;99.90;;;;;;5092628;28;20119;-65
2021/03/20 05:36:57;;;;;;;12.98;7.93;;;-1.30;99.90;;;;;;5094301;28;20024;-66
2021/03/20 05:39:24;;;;;;;12.75;7.95;;;-1.30;99.90;;;;;;5095207;28;20032;-65
2021/03/20 05:42:17;;;;;;;12.23;9.00;;;-1.40;99.90;;;;;;5094413;28;20028;-64
2021/03/20 05:45:05;;;;;;;14.13;8.70;;;-1.40;99.90;;;;;;5090092;28;20303;-66
2021/03/20 05:47:51;;;;;;;11.23;7.50;;;-1.40;99.90;;;;;;5096642;28;20477;-63
2021/03/20 05:50:40;;;;;;;17.15;8.10;;;-1.40;99.90;;;;;;5092256;28;20036;-60
2021/03/20 05:53:14;;;;;;;13.45;8.40;;;-1.50;99.90;;;;;;5093901;28;20046;-65
2021/03/20 05:55:52;;;;;;;13.07;8.27;;;-1.40;99.90;;;;;;5090436;28;20028;-62
2021/03/20 05:58:47;;;;;;;13.32;8.40;;;-1.40;99.90;;;;;;5093522;28;20101;-65
2021/03/20 06:01:34;;;;;;;12.07;7.70;;;-1.40;99.90;;;;;;5080891;28;20035;-65
2021/03/20 06:04:12;;;;;;;10.98;7.63;;;-1.40;99.90;;;;;;5091712;28;20035;-63
2021/03/20 06:07:01;;;;;;;15.00;8.85;;;-1.20;99.90;;;;;;5092517;28;20028;-61
2021/03/20 06:09:45;;;;;;;12.83;7.20;;;-1.20;99.90;;;;;;5093478;28;20096;-62
2021/03/20 06:12:22;;;;;;;14.63;8.02;;;-1.20;99.90;;;;;;5094441;28;20020;-63
2021/03/20 06:15:05;;;;;;;14.05;8.02;;;-1.10;99.90;;;;;;5091903;28;20411;-65
2021/03/20 06:17:39;;;;;;;12.68;7.82;;;-1.10;99.90;;;;;;5092747;28;20020;-62
2021/03/20 06:20:17;;;;;;;13.30;7.82;;;-1.10;99.90;;;;;;5091323;28;20067;-67
2021/03/20 06:22:59;;;;;;;13.00;6.80;;;-1.00;99.90;;;;;;5091474;28;20035;-65
2021/03/20 06:25:42;;;;;;;10.25;6.53;;;-0.90;99.90;;;;;;5093709;28;20036;-66
2021/03/20 06:28:10;;;;;;;9.02;5.55;;;-0.80;99.90;;;;;;5092194;28;20035;-64
2021/03/20 06:30:39;;;;;;;9.18;6.00;;;-0.80;99.00;;;;;;5092428;28;20032;-65
2021/03/20 06:33:29;;;;;;;9.07;4.93;;;-0.70;98.10;;;;;;5093899;28;20034;-68
2021/03/20 06:36:07;;;;;;;9.35;5.50;;;-0.60;95.40;;;;;;5093748;28;20020;-65
2021/03/20 06:38:35;;;;;;;7.60;4.95;;;-0.50;95.70;;;;;;5092418;28;20075;-66
2021/03/20 06:41:32;;;;;;;8.20;5.38;;;-0.50;96.30;;;;;;5091358;28;20016;-67
2021/03/20 06:44:28;;;;;;;11.18;5.70;;;-0.40;93.90;;;;;;5091288;28;20103;-64
2021/03/20 06:46:54;;;;;;;9.77;4.88;;;-0.30;94.30;;;;;;5091672;28;20137;-65
2021/03/20 06:49:37;;;;;;;9.90;5.43;;;-0.30;93.10;;;;;;5091077;28;20023;-63
2021/03/20 06:52:06;;;;;;;6.53;4.45;;;-0.30;93.10;;;;;;5089535;28;20040;-67
2021/03/20 06:54:33;;;;;;;7.30;4.70;;;-0.20;92.60;;;;;;5093493;28;20035;-62
2021/03/20 06:56:59;;;;;;;8.45;4.70;;;-0.10;89.80;;;;;;5092457;28;20090;-65
2021/03/20 06:59:26;;;;;;;6.35;3.95;;;0.00;90.10;;;;;;5093056;28;20036;-65
2021/03/20 07:02:03;;;;;;;6.65;4.03;;;0.00;86.50;;;;;;5092264;28;20024;-59
2021/03/20 07:05:06;;;;;;;5.70;3.55;;;0.00;87.20;;;;;;5089901;28;20024;-62
2021/03/20 07:07:35;;;;;;;7.07;3.50;;;0.00;83.90;;;;;;5081905;28;20035;-63
2021/03/20 07:10:03;;;;;;;6.75;3.80;;;-0.10;86.20;;;;;;5088736;28;20051;-63
2021/03/20 07:12:29;;;;;;;8.30;3.65;;;-0.10;85.90;;;;;;5081020;28;20130;-64
2021/03/20 07:14:58;;;;;;;7.63;3.92;;;0.00;83.40;;;;;;5092664;28;20104;-64
2021/03/20 07:17:23;;;;;;;6.70;3.78;;;0.10;84.00;;;;;;5088835;28;20085;-64
2021/03/20 07:19:54;;;;;;;5.90;3.55;;;0.10;84.50;;;;;;5091690;28;20040;-63
2021/03/20 07:22:31;;;;;;;;;;;0.20;82.80;;;;;;5091994;28;20024;-62
2021/03/20 07:24:59;;;;;;;4.13;3.13;;;0.20;82.10;;;;;;5107755;28;20368;-64
2021/03/20 07:27:32;;;;;;;5.82;3.70;;;0.30;82.50;;;;;;5107615;28;20035;-63
2021/03/20 07:30:12;;;;;;;6.03;3.65;;;0.30;81.50;;;;;;5091858;28;20111;-65
2021/03/20 07:32:39;;;;;;;5.75;3.78;;;0.30;82.50;;;;;;5099391;28;20588;-63
2021/03/20 07:35:20;;;;;;;5.15;3.67;;;0.30;82.10;;;;;;5085974;28;20032;-66
2021/03/20 07:37:48;;;;;;;6.40;3.75;;;0.40;81.90;;;;;;5087990;28;20031;-60
2021/03/20 07:40:24;;;;;;;7.93;3.33;;;0.50;80.20;;;;;;5090217;28;20424;-66
2021/03/20 07:43:08;;;;;;;5.32;3.55;;;0.60;79.50;;;;;;5090536;28;20027;-65
2021/03/20 07:45:34;;;;;;;4.65;3.10;;;0.70;78.70;;;;;;5090583;28;20498;-64
2021/03/20 07:48:03;;;;;;;7.72;3.58;;;0.80;78.00;;;;;;5090517;28;20028;-62
2021/03/20 07:50:44;;;;;;;7.82;3.45;;;0.90;78.60;;;;;;5091115;28;20040;-64
2021/03/20 07:53:21;;;;;;;4.63;3.13;;;0.80;77.60;;;;;;5087156;28;20024;-64
2021/03/20 07:55:56;;;;;;;5.03;3.33;;;0.90;74.80;;;;;;5092368;28;20389;-60
2021/03/20 07:58:25;;;;;;;5.95;3.63;;;0.90;76.00;;;;;;5093873;28;20052;-64
2021/03/20 08:00:59;;;;;;;6.05;3.65;;;1.00;75.30;;;;;;5094878;28;20491;-64
2021/03/20 08:03:29;;;;;;;6.45;3.00;;;1.20;75.20;;;;;;5083820;28;20028;-63
2021/03/20 08:06:14;;;;;;;5.80;3.13;;;1.30;72.70;;;;;;5093254;28;20117;-65
2021/03/20 08:08:40;;;;;;;6.93;3.60;;;1.30;72.20;;;;;;5095034;28;20039;-66
2021/03/20 08:11:28;;;;;;;5.75;3.60;;;1.30;73.30;;;;;;5096272;28;20032;-66
2021/03/20 08:13:58;;;;;;;7.75;3.50;;;1.20;71.30;;;;;;5094118;28;20036;-64
2021/03/20 08:16:24;;;;;;;5.10;3.45;;;1.10;72.10;;;;;;5094432;28;20016;-63
2021/03/20 08:18:54;;;;;;;3.63;3.20;;;1.20;71.90;;;;;;5081518;28;20039;-65
2021/03/20 08:21:20;;;;;;;5.93;3.20;;;1.20;69.70;;;;;;5096370;28;20101;-62
2021/03/20 08:24:20;;;;;;;3.90;2.30;;;1.00;68.70;;;;;;5083954;28;20484;-64
2021/03/20 08:26:57;;;;;;;3.90;2.65;;;0.90;70.10;;;;;;5095928;28;20040;-70
2021/03/20 08:29:52;;;;;;;3.08;2.78;;;1.00;68.40;;;;;;5098085;28;20077;-76
2021/03/20 08:32:29;;;;;;;5.00;2.33;;;0.90;71.20;;;;;;5095315;28;20035;-66
2021/03/20 08:35:10;;;;;;;5.82;2.50;;;1.10;67.30;;;;;;5093360;28;20024;-67
2021/03/20 08:37:47;;;;;;;3.45;2.40;;;1.20;68.60;;;;;;5092477;28;20499;-66
2021/03/20 08:40:54;;;;;;;5.97;3.10;;;1.40;66.70;;;;;;5094436;28;20047;-71
2021/03/20 08:43:27;;;;;;;5.20;2.38;;;1.50;65.40;;;;;;5038039;28;20410;-67
2021/03/20 08:46:23;;;;;;;4.80;2.42;;;1.50;65.80;;;;;;5037156;28;20502;-64
2021/03/20 08:49:09;;;;;;;5.18;2.22;;;1.60;64.80;;;;;;5081230;28;20040;-63
2021/03/20 08:52:12;;;;;;;4.68;2.55;;;1.50;61.30;;;;;;5093123;28;20035;-65
2021/03/20 08:55:13;;;;;;;6.20;2.10;;;1.50;61.80;;;;;;5093980;28;20020;-63
2021/03/20 08:57:57;;;;;;;4.63;2.40;;;1.40;61.80;;;;;;5048491;28;20052;-63
2021/03/20 09:00:28;;;;;;;2.63;1.73;;;1.30;60.30;;;;;;5091750;28;20078;-66
2021/03/20 09:02:59;;;;;;;4.10;1.80;;;1.20;59.70;;;;;;5102244;28;20140;-65
2021/03/20 09:05:29;;;;;;;3.17;1.90;;;1.20;60.00;;;;;;5093160;28;20099;-63
2021/03/20 09:08:20;;;;;;;2.05;1.52;;;1.20;59.20;;;;;;5093635;28;20073;-65
2021/03/20 09:11:00;;;;;;;3.47;2.70;;;1.10;61.60;;;;;;5095345;28;20032;-65
2021/03/20 09:13:37;;;;;;;4.50;2.50;;;1.20;61.00;;;;;;5092721;28;20028;-66
2021/03/20 09:16:11;;;;;;;5.32;2.75;;;1.30;62.00;;;;;;5094496;28;20101;-62
2021/03/20 09:18:40;;;;;;;5.78;2.00;;;1.30;62.70;;;;;;5093311;28;20082;-63
2021/03/20 09:21:09;;;;;;;4.65;1.95;;;1.40;61.10;;;;;;5105266;28;20024;-66
2021/03/20 09:23:40;;;;;;;4.65;2.05;;;1.60;57.20;;;;;;5103936;28;20028;-62
2021/03/20 09:26:10;;;;;;;2.25;2.03;;;1.70;56.60;;;;;;5093247;28;20030;-68
2021/03/20 09:28:51;;;;;;;4.68;2.33;;;2.00;56.20;;;;;;5101918;28;20070;-64
2021/03/20 09:31:28;;;;;;;5.47;2.70;;;2.30;58.20;;;;;;5087006;28;20031;-64
2021/03/20 09:33:55;;;;;;;2.65;2.30;;;2.70;56.30;;;;;;5077084;28;20582;-64
2021/03/20 09:36:21;;;;;;;3.67;2.10;;;3.00;56.70;;;;;;5105578;28;20034;-63
2021/03/20 09:38:57;;;;;;;1.67;1.58;;;3.20;52.70;;;;;;5112939;28;20043;-63
2021/03/20 09:41:26;;;;;;;2.58;1.88;;;3.20;46.40;;;;;;5082328;28;20063;-64
2021/03/20 09:44:03;;;;;;;4.05;2.42;;;3.10;51.10;;;;;;5104736;28;20081;-63
2021/03/20 09:46:47;;;;;;;2.97;2.20;;;3.20;51.60;;;;;;5099881;28;20024;-64
2021/03/20 09:49:13;;;;;;;3.75;2.42;;;3.30;52.40;;;;;;5109313;28;20055;-65
2021/03/20 09:51:48;;;;;;;4.13;2.40;;;3.40;52.60;;;;;;5101329;28;20024;-64
2021/03/20 09:54:33;;;;;;;3.03;1.80;;;3.50;53.90;;;;;;5108318;28;20422;-64
2021/03/20 09:57:11;;;;;;;2.22;1.60;;;3.60;52.40;;;;;;5095559;28;20086;-61
2021/03/20 09:59:36;;;;;;;4.55;2.10;;;3.60;51.60;;;;;;5094397;28;20040;-64
2021/03/20 10:02:06;;;;;;;5.47;2.40;;;3.70;49.00;;;;;;5112284;28;20177;-64
2021/03/20 10:05:21;;;;;;;2.70;1.70;;;3.60;50.90;;;;;;5093087;28;20028;-61
2021/03/20 10:08:01;;;;;;;2.95;1.80;;;3.70;50.40;;;;;;5092668;28;20115;-64
2021/03/20 10:10:27;;;;;;;;;;;3.60;49.90;;;;;;5096648;28;20053;-63
2021/03/20 10:13:12;;;;;;;3.38;1.75;;;3.70;49.30;;;;;;5091419;28;19912;-65
2021/03/20 10:15:53;;;;;;;5.22;2.15;;;3.90;48.00;;;;;;5112691;28;20055;-65
2021/03/20 10:18:26;;;;;;;3.45;1.92;;;4.00;47.20;;;;;;5102675;28;20028;-64
2021/03/20 10:20:51;;;;;;;3.65;1.75;;;4.10;44.80;;;;;;5094011;28;20039;-65
2021/03/20 10:23:40;;;;;;;3.45;1.35;;;4.10;44.10;;;;;;5110465;28;20028;-62
2021/03/20 10:26:30;;;;;;;6.38;1.55;;;4.10;42.00;;;;;;5104640;28;20481;-67
2021/03/20 10:29:03;;;;;;;2.35;1.67;;;4.00;40.70;;;;;;5106383;28;20039;-64
2021/03/20 10:31:36;;;;;;;2.85;1.48;;;3.80;41.00;;;;;;5109736;28;20855;-63
2021/03/20 10:34:06;;;;;;;3.35;1.38;;;3.60;43.30;;;;;;5100884;28;20070;-64
2021/03/20 10:36:44;;;;;;;2.65;1.50;;;3.50;44.00;;;;;;5099331;28;20540;-64
2021/03/20 10:39:26;;;;;;;2.90;1.70;;;3.30;45.50;;;;;;5111011;28;20067;-65
2021/03/20 10:42:02;;;;;;;6.32;1.70;;;3.20;45.80;;;;;;5108682;28;20031;-64
2021/03/20 10:44:40;;;;;;;3.90;2.08;;;3.10;45.30;;;;;;5082291;28;20038;-64
2021/03/20 10:47:28;;;;;;;2.72;1.50;;;3.20;47.80;;;;;;5099585;28;20031;-67
2021/03/20 10:50:01;;;;;;;3.20;1.80;;;3.20;48.20;;;;;;5092024;28;20077;-64
2021/03/20 10:52:35;;;;;;;5.60;1.98;;;3.30;46.00;;;;;;5096187;28;20660;-65
2021/03/20 10:55:24;;;;;;;6.75;1.88;;;3.30;44.90;;;;;;5102458;28;20475;-65
2021/03/20 10:57:51;;;;;;;4.25;2.00;;;3.20;47.80;;;;;;5091207;28;20130;-64
2021/03/20 11:00:22;;;;;;;3.08;1.80;;;3.30;47.40;;;;;;5072912;28;20056;-64
2021/03/20 11:02:48;;;;;;;2.53;1.70;;;3.30;46.10;;;;;;5092243;28;20020;-63
2021/03/20 11:05:24;;;;;;;2.63;1.90;;;3.40;45.70;;;;;;5093232;28;20038;-63
2021/03/20 11:07:54;;;;;;;3.97;1.83;;;3.50;47.00;;;;;;5091441;28;20030;-64
2021/03/20 11:10:48;;;;;;;2.70;1.90;;;3.60;45.90;;;;;;5090224;28;20016;-64
2021/03/20 11:13:16;;;;;;;5.55;2.90;;;3.70;47.80;;;;;;5090051;28;20023;-64
2021/03/20 11:15:46;;;;;;;3.28;1.77;;;3.60;46.00;;;;;;5091813;28;20024;-65
2021/03/20 11:18:26;;;;;;;5.28;1.88;;;3.60;44.10;;;;;;5090780;28;20020;-64
2021/03/20 11:20:52;;;;;;;5.53;2.00;;;3.50;45.70;;;;;;5091621;28;20477;-64
2021/03/20 11:23:33;;;;;;;4.00;2.15;;;3.60;45.20;;;;;;5092901;28;20046;-64
2021/03/20 11:26:10;;;;;;;3.78;1.85;;;3.60;47.20;;;;;;5073044;28;20401;-63
2021/03/20 11:28:37;;;;;;;3.75;1.92;;;3.70;47.40;;;;;;5091536;28;20036;-64
2021/03/20 11:31:05;;;;;;;3.67;2.67;;;4.20;46.90;;;;;;5099809;28;20390;-64
2021/03/20 11:33:35;;;;;;;8.93;4.93;;;4.40;45.70;;;;;;5088326;28;20286;-64
2021/03/20 11:36:02;;;;;;;3.55;2.20;;;4.40;47.80;;;;;;5099166;28;20429;-63
2021/03/20 11:38:29;;;;;;;4.60;1.85;;;4.60;44.50;;;;;;5108776;28;20118;-64
2021/03/20 11:40:54;;;;;;;2.83;2.03;;;4.90;44.30;;;;;;5098837;28;20016;-64
2021/03/20 11:43:28;;;;;;;4.82;2.47;;;5.00;42.80;;;;;;5084185;28;20156;-64
2021/03/20 11:46:07;;;;;;;2.88;2.30;;;5.00;43.70;;;;;;5086282;28;20028;-64
2021/03/20 11:48:41;;;;;;;4.03;2.33;;;5.40;44.70;;;;;;5102286;28;20024;-65
2021/03/20 11:51:15;;;;;;;3.92;2.35;;;5.60;40.70;;;;;;5102885;28;20024;-64
2021/03/20 11:53:48;;;;;;;2.75;1.80;;;5.50;41.90;;;;;;5095194;28;20055;-65
2021/03/20 11:56:16;;;;;;;3.85;2.22;;;5.60;42.00;;;;;;5093582;28;20032;-64
2021/03/20 11:58:53;;;;;;;4.95;2.40;;;5.60;43.40;;;;;;5111226;28;20050;-64
2021/03/20 12:01:34;;;;;;;2.70;2.20;;;5.70;44.50;;;;;;5090087;28;20024;-64
2021/03/20 12:04:09;;;;;;;2.88;2.08;;;5.90;42.80;;;;;;5091181;28;20081;-64
2021/03/20 12:06:37;;;;;;;3.05;2.10;;;5.90;42.80;;;;;;5087334;28;20050;-64
2021/03/20 12:09:21;;;;;;;3.30;2.40;;;6.20;43.00;;;;;;5072932;28;20024;-64
2021/03/20 12:11:47;;;;;;;3.25;2.20;;;6.50;43.50;;;;;;5095264;28;20024;-67
2021/03/20 12:14:33;;;;;;;4.18;2.60;;;6.90;41.10;;;;;;5095828;28;20055;-73
2021/03/20 12:17:18;;;;;;;3.40;2.00;;;7.00;41.30;;;;;;5085985;28;20020;-70
2021/03/20 12:20:01;;;;;;;4.35;2.75;;;7.10;42.30;;;;;;5108078;28;20044;-70
2021/03/20 12:22:47;;;;;;;3.13;2.20;;;7.30;39.10;;;;;;5079176;28;20073;-71
2021/03/20 12:25:29;;;;;;;2.92;2.08;;;7.60;40.70;;;;;;5103223;28;20032;-72
2021/03/20 12:28:24;;;;;;;2.42;1.95;;;7.30;38.10;;;;;;5101431;28;20488;-69
2021/03/20 12:31:22;;;;;;;5.88;2.30;;;7.10;39.00;;;;;;5089151;28;20040;-70
2021/03/20 12:34:26;;;;;;;3.47;2.55;;;7.10;41.30;;;;;;5084918;28;20047;-68
2021/03/20 12:36:52;;;;;;;5.15;2.50;;;7.30;39.80;;;;;;5096422;28;20066;-64
2021/03/20 12:39:19;;;;;;;4.45;2.47;;;7.50;40.30;;;;;;5091218;28;20464;-67
2021/03/20 12:41:48;;;;;;;3.72;2.55;;;7.60;39.50;;;;;;5073032;28;20426;-69
2021/03/20 12:44:18;;;;;;;5.57;2.60;;;7.80;39.70;;;;;;5107208;28;20015;-67
2021/03/20 12:46:50;;;;;;;4.45;3.10;;;8.10;40.30;;;;;;5110309;28;20031;-67
2021/03/20 12:49:20;;;;;;;5.50;2.70;;;8.30;40.00;;;;;;5112552;28;20384;-70
2021/03/20 12:51:49;;;;;;;3.42;2.15;;;8.20;38.70;;;;;;5099275;28;20035;-68
2021/03/20 12:54:21;;;;;;;3.53;2.83;;;8.00;39.60;;;;;;5112078;28;20084;-67
2021/03/20 12:56:47;;;;;;;4.65;2.65;;;7.80;38.70;;;;;;5101653;28;20165;-65
2021/03/20 12:59:13;;;;;;;4.45;2.40;;;7.30;38.60;;;;;;5094413;28;20126;-67
2021/03/20 13:01:38;;;;;;;3.00;2.42;;;6.60;41.30;;;;;;5095200;28;20430;-64
2021/03/20 13:04:04;;;;;;;4.47;2.22;;;5.90;42.40;;;;;;5080731;28;20020;-65
2021/03/20 13:06:30;;;;;;;2.78;2.53;;;5.80;44.50;;;;;;5091655;28;20100;-67
2021/03/20 13:08:55;;;;;;;3.97;2.50;;;6.20;42.80;;;;;;5090330;28;20111;-64
2021/03/20 13:11:27;;;;;;;4.30;2.53;;;6.50;42.80;;;;;;5087169;28;20032;-66
2021/03/20 13:13:54;;;;;;;4.47;2.60;;;6.50;42.70;;;;;;5094002;28;20039;-64
2021/03/20 13:16:19;;;;;;;6.35;3.05;;;6.60;43.40;;;;;;5094233;28;20035;-66
2021/03/20 13:18:45;;;;;;;2.33;2.13;;;6.70;43.10;;;;;;5097427;28;20043;-67
2021/03/20 13:21:11;;;;;;;3.72;2.33;;;6.70;42.30;;;;;;5114289;28;20024;-66
2021/03/20 13:23:37;;;;;;;5.13;2.75;;;6.90;41.40;;;;;;5100844;28;20024;-64
2021/03/20 13:26:03;;;;;;;5.25;2.65;;;7.10;42.20;;;;;;5103457;28;20031;-65
2021/03/20 13:28:28;;;;;;;6.20;3.10;;;7.60;41.60;;;;;;5104802;28;20388;-64